createdAt,value
2023-04-23T00:01:59.478Z,3.47
2023-04-23T00:04:27.186Z,3.83
2023-04-23T00:06:55.128Z,4.53
2023-04-23T00:09:22.936Z,3.13
2023-04-23T00:11:50.024Z,4.13
2023-04-23T00:14:16.844Z,3.30
2023-04-23T00:16:43.906Z,3.45
2023-04-23T00:19:10.619Z,2.92
2023-04-23T00:21:37.309Z,3.88
2023-04-23T00:24:04.035Z,3.97
2023-04-23T00:26:30.735Z,3.35
2023-04-23T00:28:57.640Z,3.67
2023-04-23T00:31:24.495Z,4.10
2023-04-23T00:33:51.633Z,4.10
2023-04-23T00:36:18.628Z,3.72
2023-04-23T00:38:45.351Z,4.57
2023-04-23T00:41:12.010Z,3.47
2023-04-23T00:43:39.190Z,2.85
2023-04-23T00:46:06.060Z,9.05
2023-04-23T00:48:34.765Z,3.20
2023-04-23T00:51:05.810Z,4.07
2023-04-23T00:53:33.675Z,3.42
2023-04-23T00:56:02.176Z,6.32
2023-04-23T00:58:30.029Z,3.70
2023-04-23T01:00:57.059Z,2.33
2023-04-23T01:03:25.744Z,2.88
2023-04-23T01:05:53.067Z,3.97
2023-04-23T01:08:21.272Z,4.20
2023-04-23T01:10:48.112Z,3.65
2023-04-23T01:13:15.766Z,5.30
2023-04-23T01:15:43.738Z,3.42
2023-04-23T01:18:11.217Z,3.00
2023-04-23T01:20:39.381Z,5.15
2023-04-23T01:23:06.778Z,4.43
2023-04-23T01:25:33.526Z,3.97
2023-04-23T01:28:00.833Z,4.88
2023-04-23T01:30:28.318Z,2.78
2023-04-23T01:32:56.499Z,3.42
2023-04-23T01:35:24.161Z,4.65
2023-04-23T01:37:54.502Z,4.38
2023-04-23T01:42:48.619Z,3.45
2023-04-23T01:45:15.808Z,4.72
2023-04-23T01:47:42.629Z,3.78
2023-04-23T01:50:10.162Z,4.63
2023-04-23T01:52:36.889Z,4.45
2023-04-23T01:55:04.022Z,3.88
2023-04-23T01:57:30.796Z,5.93
2023-04-23T02:00:08.947Z,4.13
2023-04-23T02:02:43.169Z,3.90
2023-04-23T02:05:18.766Z,4.65
2023-04-23T02:07:46.741Z,5.28
2023-04-23T02:10:14.474Z,3.55
2023-04-23T02:12:41.219Z,4.50
2023-04-23T02:15:10.089Z,3.78
2023-04-23T02:17:37.126Z,3.38
2023-04-23T02:20:04.037Z,4.32
2023-04-23T02:22:31.864Z,3.83
2023-04-23T02:25:00.048Z,3.63
2023-04-23T02:27:26.929Z,4.00
2023-04-23T02:29:53.753Z,3.70
2023-04-23T02:32:20.649Z,4.30
2023-04-23T02:34:47.339Z,4.22
2023-04-23T02:37:14.167Z,6.07
2023-04-23T02:39:41.204Z,5.65
2023-04-23T02:42:08.571Z,4.40
2023-04-23T02:44:35.464Z,4.13
2023-04-23T02:47:02.403Z,5.38
2023-04-23T02:49:29.187Z,4.85
2023-04-23T02:51:55.994Z,4.30
2023-04-23T02:54:22.775Z,4.18
2023-04-23T02:56:49.482Z,5.47
2023-04-23T02:59:16.220Z,3.65
2023-04-23T03:01:43.454Z,4.55
2023-04-23T03:04:12.476Z,2.95
2023-04-23T03:06:39.217Z,3.33
2023-04-23T03:09:05.946Z,5.82
2023-04-23T03:11:32.965Z,3.58
2023-04-23T03:13:59.889Z,3.05
2023-04-23T03:16:28.399Z,4.72
2023-04-23T03:18:55.827Z,3.97
2023-04-23T03:21:23.331Z,3.40
2023-04-23T03:23:50.749Z,6.65
2023-04-23T03:31:56.907Z,4.60
2023-04-23T03:34:23.673Z,6.47
2023-04-23T03:36:51.323Z,4.70
2023-04-23T03:39:18.578Z,4.78
2023-04-23T03:41:49.942Z,5.03
2023-04-23T03:44:19.568Z,4.68
2023-04-23T03:46:46.895Z,4.97
2023-04-23T03:49:16.887Z,5.28
2023-04-23T03:51:44.300Z,4.45
2023-04-23T03:54:11.502Z,5.03
2023-04-23T03:56:44.818Z,5.40
2023-04-23T03:59:17.782Z,5.10
2023-04-23T04:01:45.668Z,4.15
2023-04-23T04:04:12.930Z,4.80
2023-04-23T04:06:39.890Z,3.40
2023-04-23T04:09:09.779Z,2.90
2023-04-23T04:11:37.018Z,5.72
2023-04-23T04:14:03.744Z,3.55
2023-04-23T04:16:30.844Z,3.53
2023-04-23T04:18:57.580Z,5.10
2023-04-23T04:21:24.295Z,4.15
2023-04-23T04:23:51.266Z,3.90
2023-04-23T04:26:18.963Z,4.95
2023-04-23T04:31:16.512Z,3.00
2023-04-23T04:33:43.498Z,4.47
2023-04-23T04:36:10.269Z,3.05
2023-04-23T04:38:39.836Z,4.53
2023-04-23T04:41:06.665Z,3.22
2023-04-23T04:43:34.601Z,3.25
2023-04-23T04:46:01.391Z,2.55
2023-04-23T04:48:28.082Z,4.07
2023-04-23T04:50:54.881Z,2.30
2023-04-23T04:53:21.815Z,3.05
2023-04-23T04:55:48.516Z,2.65
2023-04-23T04:58:15.555Z,2.97
2023-04-23T05:00:42.723Z,3.15
2023-04-23T05:03:11.073Z,2.75
2023-04-23T05:05:40.133Z,2.70
2023-04-23T05:08:06.833Z,2.83
2023-04-23T05:10:33.538Z,2.53
2023-04-23T05:13:00.829Z,3.20
2023-04-23T05:15:27.529Z,2.72
2023-04-23T05:17:54.379Z,2.40
2023-04-23T05:20:21.992Z,2.55
2023-04-23T05:22:48.850Z,5.18
2023-04-23T05:25:15.751Z,2.42
2023-04-23T05:27:42.582Z,3.92
2023-04-23T05:30:10.597Z,2.00
2023-04-23T05:32:37.942Z,2.85
2023-04-23T05:35:05.493Z,2.20
2023-04-23T05:37:32.161Z,2.65
2023-04-23T05:39:58.973Z,1.85
2023-04-23T05:42:26.259Z,2.30
2023-04-23T05:44:52.978Z,2.25
2023-04-23T05:47:19.771Z,2.08
2023-04-23T05:49:46.519Z,2.63
2023-04-23T05:52:13.446Z,3.10
2023-04-23T05:54:40.387Z,2.60
2023-04-23T05:57:07.235Z,3.03
2023-04-23T05:59:34.131Z,2.95
2023-04-23T06:02:01.201Z,3.08
2023-04-23T06:04:28.131Z,1.50
2023-04-23T06:06:54.999Z,1.88
2023-04-23T06:09:21.667Z,2.00
2023-04-23T06:11:50.768Z,2.85
2023-04-23T06:14:17.449Z,3.15
2023-04-23T06:16:44.103Z,1.98
2023-04-23T06:19:11.644Z,1.80
2023-04-23T06:21:38.502Z,1.65
2023-04-23T06:27:50.524Z,2.85
2023-04-23T06:30:21.235Z,1.63
2023-04-23T06:32:47.959Z,2.20
2023-04-23T06:35:14.799Z,1.50
2023-04-23T06:37:41.502Z,1.58
2023-04-23T06:40:08.590Z,1.23
2023-04-23T06:42:35.378Z,2.28
2023-04-23T06:45:13.548Z,1.30
2023-04-23T06:47:40.324Z,1.65
2023-04-23T06:50:08.594Z,1.55
2023-04-23T06:52:36.270Z,1.60
2023-04-23T06:55:03.389Z,1.55
2023-04-23T06:57:30.159Z,3.60
2023-04-23T06:59:56.900Z,1.10
2023-04-23T07:02:27.797Z,1.27
2023-04-23T07:04:54.680Z,1.55
2023-04-23T07:07:21.435Z,1.63
2023-04-23T07:09:48.149Z,2.28
2023-04-23T07:12:14.918Z,1.55
2023-04-23T07:14:42.031Z,1.38
2023-04-23T07:17:09.166Z,1.20
2023-04-23T07:19:36.000Z,1.20
2023-04-23T07:22:02.839Z,1.95
2023-04-23T07:24:29.619Z,1.33
2023-04-23T07:26:56.477Z,1.20
2023-04-23T07:29:23.302Z,1.10
2023-04-23T07:31:50.075Z,3.00
2023-04-23T07:34:19.061Z,1.35
2023-04-23T07:36:45.914Z,2.00
2023-04-23T07:39:12.916Z,1.85
2023-04-23T07:41:39.725Z,1.95
2023-04-23T07:44:06.677Z,4.22
2023-04-23T07:46:33.739Z,0.90
2023-04-23T07:49:00.981Z,0.82
2023-04-23T07:51:27.785Z,1.15
2023-04-23T07:53:54.759Z,1.15
2023-04-23T07:56:22.704Z,1.92
2023-04-23T07:58:49.434Z,0.98
2023-04-23T08:01:16.354Z,1.10
2023-04-23T08:03:43.567Z,1.00
2023-04-23T08:06:12.511Z,1.85
2023-04-23T08:08:39.608Z,1.70
2023-04-23T08:11:07.408Z,1.13
2023-04-23T08:13:34.293Z,1.30
2023-04-23T08:16:01.064Z,1.35
2023-04-23T08:18:27.789Z,2.05
2023-04-23T08:20:55.037Z,1.05
2023-04-23T08:23:21.781Z,1.40
2023-04-23T08:25:48.459Z,1.55
2023-04-23T08:28:15.192Z,1.88
2023-04-23T08:30:42.057Z,1.35
2023-04-23T08:33:08.986Z,2.20
2023-04-23T08:35:35.870Z,3.47
2023-04-23T08:38:02.618Z,1.20
2023-04-23T08:40:31.364Z,2.00
2023-04-23T08:43:02.470Z,1.75
2023-04-23T08:45:30.704Z,2.05
2023-04-23T08:48:02.713Z,1.48
2023-04-23T08:50:30.138Z,1.55
2023-04-23T08:52:58.264Z,2.97
2023-04-23T08:55:25.986Z,1.80
2023-04-23T08:57:52.995Z,1.23
2023-04-23T09:00:21.665Z,0.85
2023-04-23T09:02:49.582Z,1.30
2023-04-23T09:05:16.685Z,1.00
2023-04-23T09:07:43.421Z,1.52
2023-04-23T09:10:13.396Z,1.35
2023-04-23T09:12:42.871Z,1.17
2023-04-23T09:15:11.204Z,1.45
2023-04-23T09:17:45.370Z,1.10
2023-04-23T09:20:13.476Z,1.67
2023-04-23T09:22:49.870Z,1.38
2023-04-23T09:25:18.785Z,1.88
2023-04-23T09:27:47.071Z,1.40
2023-04-23T09:30:14.952Z,1.30
2023-04-23T09:32:42.653Z,1.23
2023-04-23T09:35:11.542Z,1.63
2023-04-23T09:37:42.404Z,1.55
2023-04-23T09:40:09.816Z,1.15
2023-04-23T09:42:37.512Z,1.23
2023-04-23T09:45:05.986Z,0.88
2023-04-23T09:47:34.738Z,1.08
2023-04-23T09:50:01.977Z,1.70
2023-04-23T09:52:31.627Z,1.00
2023-04-23T09:54:59.516Z,1.20
2023-04-23T09:57:26.519Z,1.73
2023-04-23T10:00:00.537Z,1.52
2023-04-23T10:02:40.168Z,1.00
2023-04-23T10:05:24.341Z,3.05
2023-04-23T10:07:56.599Z,1.20
2023-04-23T10:10:24.235Z,2.58
2023-04-23T10:12:55.513Z,1.33
2023-04-23T10:15:24.172Z,2.13
2023-04-23T10:17:51.648Z,1.50
2023-04-23T10:20:21.253Z,1.35
2023-04-23T10:22:48.027Z,1.58
2023-04-23T10:25:15.551Z,2.15
2023-04-23T10:27:52.076Z,2.30
2023-04-23T10:30:20.596Z,1.02
2023-04-23T10:32:49.001Z,1.13
2023-04-23T10:35:15.972Z,0.75
2023-04-23T10:37:43.270Z,1.25
2023-04-23T10:40:15.251Z,1.65
2023-04-23T10:42:43.951Z,0.98
2023-04-23T10:45:23.379Z,1.05
2023-04-23T10:47:51.248Z,0.77
2023-04-23T10:50:23.198Z,1.73
2023-04-23T10:52:57.539Z,1.15
2023-04-23T10:55:27.311Z,1.10
2023-04-23T10:58:07.877Z,1.10
2023-04-23T11:00:43.680Z,1.25
2023-04-23T11:03:30.688Z,0.63
2023-04-23T11:06:01.143Z,1.27
2023-04-23T11:08:31.467Z,0.60
2023-04-23T11:10:59.783Z,1.42
2023-04-23T11:13:27.476Z,0.80
2023-04-23T11:16:13.994Z,0.70
2023-04-23T11:19:05.251Z,2.05
2023-04-23T11:22:11.086Z,0.40
2023-04-23T11:24:42.898Z,2.90
2023-04-23T11:27:15.072Z,0.65
2023-04-23T11:29:43.530Z,1.80
2023-04-23T11:32:13.614Z,0.75
2023-04-23T11:34:41.817Z,1.08
2023-04-23T11:37:11.114Z,0.68
2023-04-23T11:39:38.697Z,1.00
2023-04-23T11:42:06.576Z,0.70
2023-04-23T11:44:33.325Z,1.30
2023-04-23T11:47:02.435Z,0.80
2023-04-23T11:49:29.373Z,0.60
2023-04-23T11:51:59.816Z,1.02
2023-04-23T11:54:28.471Z,0.88
2023-04-23T11:56:55.791Z,1.42
2023-04-23T11:59:23.216Z,0.40
2023-04-23T12:01:52.260Z,0.68
2023-04-23T12:04:21.623Z,0.38
2023-04-23T12:06:50.161Z,1.02
2023-04-23T12:09:19.236Z,1.75
2023-04-23T12:11:46.229Z,0.80
2023-04-23T12:14:15.373Z,1.08
2023-04-23T12:16:44.131Z,0.57
2023-04-23T12:19:15.541Z,0.98
2023-04-23T12:21:56.969Z,1.38
2023-04-23T12:24:25.612Z,0.85
2023-04-23T12:27:01.004Z,0.55
2023-04-23T12:29:30.395Z,0.57
2023-04-23T12:31:59.143Z,0.77
2023-04-23T12:34:25.979Z,0.90
2023-04-23T12:36:55.369Z,0.80
2023-04-23T12:39:29.544Z,1.10
2023-04-23T12:42:08.212Z,2.65
2023-04-23T12:44:36.240Z,0.65
2023-04-23T12:47:11.641Z,0.68
2023-04-23T12:49:40.365Z,0.50
2023-04-23T12:52:07.876Z,0.70
2023-04-23T12:54:38.954Z,0.45
2023-04-23T12:57:08.003Z,0.88
2023-04-23T12:59:34.993Z,0.90
2023-04-23T13:02:03.108Z,0.73
2023-04-23T13:04:31.505Z,0.70
2023-04-23T13:06:58.243Z,0.77
2023-04-23T13:09:27.083Z,0.40
2023-04-23T13:11:54.561Z,0.60
2023-04-23T13:14:21.797Z,1.67
2023-04-23T13:16:49.205Z,0.40
2023-04-23T13:19:17.473Z,1.05
2023-04-23T13:21:45.039Z,0.60
2023-04-23T13:24:12.023Z,1.20
2023-04-23T13:26:38.873Z,0.50
2023-04-23T13:29:05.708Z,2.30
2023-04-23T13:31:32.486Z,0.65
2023-04-23T13:33:59.462Z,0.63
2023-04-23T13:36:26.938Z,1.23
2023-04-23T13:38:53.619Z,2.67
2023-04-23T13:41:20.503Z,0.77
2023-04-23T13:43:47.190Z,0.80
2023-04-23T13:46:14.452Z,0.57
2023-04-23T13:48:41.658Z,0.85
2023-04-23T13:51:20.750Z,1.23
2023-04-23T13:53:53.951Z,0.47
2023-04-23T13:56:20.805Z,1.52
2023-04-23T13:58:49.032Z,1.65
2023-04-23T14:01:16.183Z,0.50
2023-04-23T14:03:42.977Z,2.70
2023-04-23T14:06:10.028Z,1.17
2023-04-23T14:08:37.385Z,0.75
2023-04-23T14:11:04.700Z,1.30
2023-04-23T14:13:32.627Z,0.70
2023-04-23T14:16:02.037Z,0.82
2023-04-23T14:18:30.560Z,1.33
2023-04-23T14:20:57.327Z,0.93
2023-04-23T14:23:24.096Z,0.90
2023-04-23T14:25:58.700Z,2.00
2023-04-23T14:28:45.524Z,1.23
2023-04-23T14:31:12.306Z,0.60
2023-04-23T14:33:39.037Z,1.20
2023-04-23T14:36:06.025Z,0.68
2023-04-23T14:38:32.769Z,1.05
2023-04-23T14:40:59.507Z,1.00
2023-04-23T14:43:26.204Z,1.15
2023-04-23T14:45:52.981Z,2.03
2023-04-23T14:48:19.717Z,2.88
2023-04-23T14:50:46.580Z,0.60
2023-04-23T14:53:13.308Z,0.63
2023-04-23T14:55:43.547Z,1.52
2023-04-23T14:58:10.284Z,3.25
2023-04-23T15:00:36.984Z,0.60
2023-04-23T15:03:10.114Z,1.42
2023-04-23T15:05:37.879Z,1.45
2023-04-23T15:08:04.945Z,1.38
2023-04-23T15:10:31.694Z,1.48
2023-04-23T15:13:29.241Z,2.58
2023-04-23T15:16:00.189Z,1.08
2023-04-23T15:18:27.121Z,1.38
2023-04-23T15:20:54.274Z,1.23
2023-04-23T15:23:21.874Z,1.48
2023-04-23T15:25:51.577Z,1.00
2023-04-23T15:28:18.352Z,1.58
2023-04-23T15:30:45.654Z,2.78
2023-04-23T15:33:12.344Z,2.33
2023-04-23T15:35:39.091Z,2.92
2023-04-23T15:38:05.865Z,1.67
2023-04-23T15:40:33.533Z,1.95
2023-04-23T15:43:00.475Z,1.50
2023-04-23T15:45:27.288Z,3.95
2023-04-23T15:47:54.078Z,2.33
2023-04-23T15:50:23.545Z,1.20
2023-04-23T15:52:50.626Z,2.20
2023-04-23T15:55:18.188Z,1.10
2023-04-23T15:57:44.930Z,2.92
2023-04-23T16:00:12.829Z,2.35
2023-04-23T16:02:39.736Z,2.28
2023-04-23T16:05:06.659Z,2.30
2023-04-23T16:07:33.463Z,2.25
2023-04-23T16:10:00.211Z,1.35
2023-04-23T16:12:27.339Z,1.02
2023-04-23T16:14:54.123Z,3.05
2023-04-23T16:17:20.894Z,3.78
2023-04-23T16:19:47.661Z,2.42
2023-04-23T16:22:16.234Z,2.15
2023-04-23T16:24:43.000Z,2.42
2023-04-23T16:27:11.056Z,2.38
2023-04-23T16:29:38.328Z,1.75
2023-04-23T16:32:05.702Z,1.88
2023-04-23T16:34:32.615Z,1.75
2023-04-23T16:36:59.377Z,2.47
2023-04-23T16:39:26.176Z,0.93
2023-04-23T16:41:52.877Z,1.67
2023-04-23T16:44:19.891Z,2.42
2023-04-23T16:46:46.613Z,2.15
2023-04-23T16:49:13.758Z,4.80
2023-04-23T16:51:40.729Z,7.20
2023-04-23T16:54:07.424Z,6.45
2023-04-23T16:56:34.276Z,3.22
2023-04-23T16:59:01.415Z,3.45
2023-04-23T17:01:28.250Z,4.68
2023-04-23T17:03:55.242Z,2.58
2023-04-23T17:06:27.603Z,6.18
2023-04-23T17:08:55.471Z,2.45
2023-04-23T17:11:23.228Z,2.80
2023-04-23T17:13:51.301Z,2.85
2023-04-23T17:16:18.453Z,2.50
2023-04-23T17:18:45.684Z,2.15
2023-04-23T17:21:12.814Z,1.98
2023-04-23T17:23:39.851Z,1.35
2023-04-23T17:26:07.000Z,1.40
2023-04-23T17:28:33.700Z,4.47
2023-04-23T17:31:01.372Z,2.70
2023-04-23T17:33:28.859Z,2.05
2023-04-23T17:35:55.990Z,5.75
2023-04-23T17:38:24.243Z,4.32
2023-04-23T17:40:52.548Z,3.97
2023-04-23T17:43:20.014Z,2.00
2023-04-23T17:45:47.791Z,2.17
2023-04-23T17:48:15.134Z,2.72
2023-04-23T17:50:42.398Z,2.70
2023-04-23T17:53:10.554Z,2.20
2023-04-23T17:55:37.410Z,2.47
2023-04-23T17:58:07.729Z,2.85
2023-04-23T18:00:39.820Z,1.65
2023-04-23T18:03:11.041Z,2.80
2023-04-23T18:05:38.268Z,2.63
2023-04-23T18:08:07.499Z,1.85
2023-04-23T18:10:34.566Z,1.38
2023-04-23T18:13:03.390Z,1.65
2023-04-23T18:15:33.790Z,2.08
2023-04-23T18:18:01.437Z,1.67
2023-04-23T18:20:28.647Z,1.63
2023-04-23T18:22:55.865Z,1.65
2023-04-23T18:25:22.753Z,1.70
2023-04-23T18:27:49.652Z,2.72
2023-04-23T18:30:16.484Z,1.30
2023-04-23T18:32:47.871Z,3.75
2023-04-23T18:35:15.060Z,3.28
2023-04-23T18:37:41.663Z,1.67
2023-04-23T18:40:09.163Z,1.75
2023-04-23T18:42:35.858Z,2.53
2023-04-23T18:45:04.508Z,3.03
2023-04-23T18:47:33.319Z,1.92
2023-04-23T18:50:09.631Z,1.92
2023-04-23T18:55:03.760Z,4.90
2023-04-23T18:57:30.848Z,2.53
2023-04-23T18:59:57.695Z,3.00
2023-04-23T19:02:34.564Z,2.70
2023-04-23T19:05:03.170Z,3.05
2023-04-23T19:07:29.988Z,2.80
2023-04-23T19:09:56.742Z,3.88
2023-04-23T19:12:23.779Z,2.70
2023-04-23T19:14:50.520Z,3.70
2023-04-23T19:17:18.754Z,5.10
2023-04-23T19:19:46.235Z,2.85
2023-04-23T19:22:13.419Z,5.40
2023-04-23T19:24:40.116Z,4.32
2023-04-23T19:27:07.364Z,2.72
2023-04-23T19:29:34.073Z,3.50
2023-04-23T19:32:01.039Z,2.60
2023-04-23T19:34:27.834Z,2.47
2023-04-23T19:36:54.595Z,4.00
2023-04-23T19:39:23.705Z,2.15
2023-04-23T19:41:50.679Z,1.48
2023-04-23T19:44:17.509Z,1.42
2023-04-23T19:46:44.342Z,2.50
2023-04-23T19:49:11.196Z,1.42
2023-04-23T19:51:38.235Z,1.38
2023-04-23T19:54:05.275Z,2.10
2023-04-23T19:56:31.996Z,1.10
2023-04-23T19:58:58.698Z,1.90
2023-04-23T20:01:28.269Z,2.55
2023-04-23T20:03:56.135Z,1.85
2023-04-23T20:06:23.236Z,2.70
2023-04-23T20:09:08.939Z,2.10
2023-04-23T20:11:36.219Z,1.90
2023-04-23T20:14:03.540Z,1.60
2023-04-23T20:16:30.848Z,3.17
2023-04-23T20:18:58.015Z,3.47
2023-04-23T20:21:25.172Z,2.92
2023-04-23T20:23:51.893Z,1.88
2023-04-23T20:26:19.957Z,3.45
2023-04-23T20:28:48.434Z,1.95
2023-04-23T20:31:15.732Z,2.08
2023-04-23T20:33:42.494Z,2.72
2023-04-23T20:36:11.063Z,3.00
2023-04-23T20:38:39.302Z,1.00
2023-04-23T20:41:06.352Z,1.10
2023-04-23T20:43:34.812Z,1.65
2023-04-23T20:46:02.509Z,1.20
2023-04-23T20:48:30.199Z,0.90
2023-04-23T20:50:57.434Z,1.33
2023-04-23T20:53:24.525Z,2.92
2023-04-23T20:55:51.441Z,1.10
2023-04-23T20:58:18.283Z,1.80
2023-04-23T21:00:46.081Z,3.38
2023-04-23T21:03:13.023Z,1.50
2023-04-23T21:05:44.356Z,0.75
2023-04-23T21:08:11.778Z,0.88
2023-04-23T21:10:39.131Z,3.00
2023-04-23T21:13:10.481Z,1.92
2023-04-23T21:15:37.391Z,2.15
2023-04-23T21:18:04.399Z,1.80
2023-04-23T21:20:31.362Z,1.70
2023-04-23T21:22:58.081Z,1.80
2023-04-23T21:25:26.873Z,1.30
2023-04-23T21:27:55.418Z,0.90
2023-04-23T21:30:28.695Z,1.50
2023-04-23T21:32:55.669Z,0.95
2023-04-23T21:35:22.414Z,0.75
2023-04-23T21:37:49.147Z,2.97
2023-04-23T21:40:15.930Z,0.98
2023-04-23T21:42:45.045Z,1.40
2023-04-23T21:45:11.826Z,0.98
2023-04-23T21:47:38.562Z,0.57
2023-04-23T21:50:05.846Z,1.63
2023-04-23T21:52:32.553Z,1.58
2023-04-23T21:54:59.249Z,3.03
2023-04-23T21:57:25.993Z,1.95
2023-04-23T21:59:52.685Z,1.15
2023-04-23T22:02:19.514Z,1.10
2023-04-23T22:04:46.401Z,1.40
2023-04-23T22:07:13.728Z,1.00
2023-04-23T22:09:41.603Z,1.05
2023-04-23T22:12:08.966Z,0.80
2023-04-23T22:14:35.763Z,0.82
2023-04-23T22:17:02.945Z,1.50
2023-04-23T22:19:31.483Z,2.60
2023-04-23T22:21:58.192Z,0.73
2023-04-23T22:24:24.984Z,0.80
2023-04-23T22:26:52.044Z,2.10
2023-04-23T22:29:18.733Z,4.00
2023-04-23T22:31:45.526Z,2.08
2023-04-23T22:34:12.258Z,1.48
2023-04-23T22:36:40.835Z,1.70
2023-04-23T22:39:07.691Z,1.20
2023-04-23T22:41:36.645Z,1.88
2023-04-23T22:44:03.352Z,1.05
2023-04-23T22:46:30.116Z,1.23
2023-04-23T22:48:56.848Z,3.58
2023-04-23T22:51:23.762Z,1.25
2023-04-23T22:53:50.805Z,3.17
2023-04-23T22:56:17.602Z,1.58
2023-04-23T22:58:44.664Z,1.92
2023-04-23T23:01:11.406Z,1.83
2023-04-23T23:03:38.261Z,2.10
2023-04-23T23:06:05.762Z,2.38
2023-04-23T23:08:32.444Z,0.65
2023-04-23T23:10:59.170Z,1.15
2023-04-23T23:13:26.048Z,2.20
2023-04-23T23:15:52.834Z,2.25
2023-04-23T23:18:19.990Z,1.30
2023-04-23T23:20:47.341Z,0.90
2023-04-23T23:23:14.110Z,1.83
2023-04-23T23:25:41.201Z,2.30
2023-04-23T23:28:07.944Z,1.20
2023-04-23T23:30:34.667Z,1.65
2023-04-23T23:33:01.722Z,2.63
2023-04-23T23:35:28.534Z,1.27
2023-04-23T23:37:55.992Z,1.58
2023-04-23T23:40:22.681Z,1.13
2023-04-23T23:42:49.392Z,1.38
2023-04-23T23:45:16.340Z,2.15
2023-04-23T23:47:43.516Z,4.45
2023-04-23T23:50:10.737Z,1.17
2023-04-23T23:52:37.457Z,1.52
2023-04-23T23:55:05.010Z,1.98
2023-04-23T23:57:31.782Z,1.40
2023-04-23T23:59:58.553Z,1.95
